Senshu Maru — JCIR — position and weather

sailwx.info

Track history (hours):
 
Tides and Currents Weather Stations Pressure Air Temp Water Temp Dewpoint Dewpoint Depression Visibility Wind Speed Wind Dir Waves Ship Positions

Oceanographic research ship Senshu Maru (Japan)

Detailed information on ship capabilities available from University of Delaware's Ocean Information Center.

Last reported at 2017-Aug-03 05:14 UTC. Time now 2017-Aug-18 02:48 UTC.
Position N 34°05' E 134°55'.
Warning: this ship's position is 14 days out of date.

Length 283 m; beam 44.8 m.

Type: Ship (hazmat cat A). MMSI: 431023000.

Date/timePositionNaut miles runAvg speedWind from/ knotsBaromVisibWave heightAir tempDewpointWater temp
2017-Aug-03 05:14N 34°05' E 134°55'415.2
2017-Aug-03 05:00N 34°09' E 134°56'611.0
2017-Aug-03 04:30N 34°14' E 134°58'713.5
2017-Aug-03 03:59N 34°21' E 134°60'915.7
2017-Aug-03 03:26N 34°29' E 135°04'511.0
2017-Aug-03 03:00N 34°33' E 135°06'4 8.8
2017-Aug-03 02:30N 34°36' E 135°02'611.9
2017-Aug-03 02:00N 34°36' E 134°55'713.7
2017-Aug-03 01:29N 34°33' E 134°47'612.0
2017-Aug-03 00:58N 34°38' E 134°42'4 0.2
2017-Aug-02 02:13N 34°34' E 134°43'75715.1
2017-Jul-31 00:00N 22°36' E 130°12'   300 / 81006.410.8 31.028.030.0
Track history (hours):
 
Tides and Currents Weather Stations Pressure Air Temp Water Temp Dewpoint Dewpoint Depression Visibility Wind Speed Wind Dir Waves Ship Positions

Oceanographic research ship Senshu Maru (Japan)

Detailed information on ship capabilities available from University of Delaware's Ocean Information Center.

Last reported at 2017-Aug-03 05:14 UTC. Time now 2017-Aug-18 02:48 UTC.
Position N 34°05' E 134°55'.
Warning: this ship's position is 14 days out of date.

Length 283 m; beam 44.8 m.

Type: Ship (hazmat cat A). MMSI: 431023000.

Date/timePositionNaut miles runAvg speedWind from/ knotsBaromVisibWave heightAir tempDewpointWater temp
2017-Aug-03 05:14N 34°05' E 134°55'415.2
2017-Aug-03 05:00N 34°09' E 134°56'611.0
2017-Aug-03 04:30N 34°14' E 134°58'713.5
2017-Aug-03 03:59N 34°21' E 134°60'915.7
2017-Aug-03 03:26N 34°29' E 135°04'511.0
2017-Aug-03 03:00N 34°33' E 135°06'4 8.8
2017-Aug-03 02:30N 34°36' E 135°02'611.9
2017-Aug-03 02:00N 34°36' E 134°55'713.7
2017-Aug-03 01:29N 34°33' E 134°47'612.0
2017-Aug-03 00:58N 34°38' E 134°42'4 0.2
2017-Aug-02 02:13N 34°34' E 134°43'75715.1
2017-Jul-31 00:00N 22°36' E 130°12'   300 / 81006.410.8 31.028.030.0

Dump ship's entire track history